Airfield :
LOGIN :

Register | Disclaimer

   EN    FR    IT 

 










Legend :    VFR   Marginal VFR   IFR   Intensive IFR   Very Intensive IFR
Visi :
Ceiling :
>= 8 km
>= 3000ft
5 to 8 km
1000 to 3000 ft
1500m to 5 km
500 to 1000 ft
800 to 1500m
200 to 500 ft
< 800m
< 200 ft
Symbols :   Thunderstorms  Fog  Heavy snow  Heavy precipitations  Wind > 20 kt
SIGMETs :     Misc.  Thunderstorms  Icing  Turbulence  Mountain Waves  Volcanic Ashes






- Airport Elevation : 156 ft
- IATA code : OMO


LQMO - Mostar

CURRENT METAR :
  • 301500Z 19008KT 150V220 9999 FEW060 35/17 Q1009

EXPIRED METARs :
  • 301400Z 20009KT 170V240 9999 FEW060 36/17 Q1009
  • 301330Z 21009KT 180V250 9999 FEW060 36/17 Q1010

TAF TAF LQMO
Valid from the 30 at 12:00 until the 01 at 12:00 UTC


301100Z 3012/0112 VRB02KT CAVOK TX37/3013Z TN22/0103Z
PROB40
TEMPO 3012/3018 22015KT 4000 TSRA FEW035CB SCT045



MET'MAP, your aeronautical weather chart ! - Copyright ORBIFLY December 2007 - Disclaimer

ORBIFLY MET'MAP TEAM :

Programming & Development : Alexandra Zaïnal
Original concept : Baudouin d'Aumeries
Technical & hardware support : Manuel Goepfert
Assistance : Marc-Olivier Méhu




SOURCES & CREDITS :

   NOAA